sensor_id;sensor_type;location;lat;lon;timestamp;temperature;humidity
78463;SHT31;67756;51.982;5.648;2023-04-06T00:00:22;10.2;44.3
78463;SHT31;67756;51.982;5.648;2023-04-06T00:02:51;10.2;44.1
78463;SHT31;67756;51.982;5.648;2023-04-06T00:05:21;10.1;44.0
78463;SHT31;67756;51.982;5.648;2023-04-06T00:07:51;10.1;43.9
78463;SHT31;67756;51.982;5.648;2023-04-06T00:10:23;10.1;44.1
78463;SHT31;67756;51.982;5.648;2023-04-06T00:12:55;10.0;43.1
78463;SHT31;67756;51.982;5.648;2023-04-06T00:15:24;10.0;42.9
78463;SHT31;67756;51.982;5.648;2023-04-06T00:17:55;10.0;42.8
78463;SHT31;67756;51.982;5.648;2023-04-06T00:20:26;9.9;42.6
78463;SHT31;67756;51.982;5.648;2023-04-06T00:22:56;9.9;42.5
78463;SHT31;67756;51.982;5.648;2023-04-06T00:25:26;9.9;42.9
78463;SHT31;67756;51.982;5.648;2023-04-06T00:27:55;9.9;43.2
78463;SHT31;67756;51.982;5.648;2023-04-06T00:30:25;9.8;43.3
78463;SHT31;67756;51.982;5.648;2023-04-06T00:32:54;9.8;43.3
78463;SHT31;67756;51.982;5.648;2023-04-06T00:35:24;9.8;43.6
78463;SHT31;67756;51.982;5.648;2023-04-06T00:37:53;9.8;44.1
78463;SHT31;67756;51.982;5.648;2023-04-06T00:40:23;9.7;43.8
78463;SHT31;67756;51.982;5.648;2023-04-06T00:42:54;9.7;44.3
78463;SHT31;67756;51.982;5.648;2023-04-06T00:45:26;9.7;44.0
78463;SHT31;67756;51.982;5.648;2023-04-06T00:47:56;9.7;44.3
78463;SHT31;67756;51.982;5.648;2023-04-06T00:50:25;9.6;44.2
78463;SHT31;67756;51.982;5.648;2023-04-06T00:52:55;9.6;44.9
78463;SHT31;67756;51.982;5.648;2023-04-06T00:55:25;9.6;42.5
78463;SHT31;67756;51.982;5.648;2023-04-06T00:57:57;9.6;43.4
78463;SHT31;67756;51.982;5.648;2023-04-06T01:00:28;9.6;42.8
78463;SHT31;67756;51.982;5.648;2023-04-06T01:02:58;9.5;42.8
78463;SHT31;67756;51.982;5.648;2023-04-06T01:05:28;9.5;43.5
78463;SHT31;67756;51.982;5.648;2023-04-06T01:07:58;9.5;44.1
78463;SHT31;67756;51.982;5.648;2023-04-06T01:10:28;9.5;44.3
78463;SHT31;67756;51.982;5.648;2023-04-06T01:12:58;9.4;44.8
78463;SHT31;67756;51.982;5.648;2023-04-06T01:15:29;9.4;43.8
78463;SHT31;67756;51.982;5.648;2023-04-06T01:17:59;9.4;43.7
78463;SHT31;67756;51.982;5.648;2023-04-06T01:20:28;9.4;44.5
78463;SHT31;67756;51.982;5.648;2023-04-06T01:22:57;9.4;44.1
78463;SHT31;67756;51.982;5.648;2023-04-06T01:25:27;9.4;43.6
78463;SHT31;67756;51.982;5.648;2023-04-06T01:27:57;9.3;44.8
78463;SHT31;67756;51.982;5.648;2023-04-06T01:30:26;9.3;44.8
78463;SHT31;67756;51.982;5.648;2023-04-06T01:32:56;9.3;45.7
78463;SHT31;67756;51.982;5.648;2023-04-06T01:35:26;9.2;46.1
78463;SHT31;67756;51.982;5.648;2023-04-06T01:37:55;9.2;46.5
78463;SHT31;67756;51.982;5.648;2023-04-06T01:40:25;9.2;46.8
78463;SHT31;67756;51.982;5.648;2023-04-06T01:42:54;9.2;47.0
78463;SHT31;67756;51.982;5.648;2023-04-06T01:45:23;9.1;47.5
78463;SHT31;67756;51.982;5.648;2023-04-06T01:47:53;9.1;46.6
78463;SHT31;67756;51.982;5.648;2023-04-06T01:50:22;9.1;47.4
78463;SHT31;67756;51.982;5.648;2023-04-06T01:52:52;9.1;47.0
78463;SHT31;67756;51.982;5.648;2023-04-06T01:55:22;9.0;45.5
78463;SHT31;67756;51.982;5.648;2023-04-06T01:57:51;9.0;45.6
78463;SHT31;67756;51.982;5.648;2023-04-06T02:00:21;9.0;43.1
78463;SHT31;67756;51.982;5.648;2023-04-06T02:02:51;9.0;42.6
78463;SHT31;67756;51.982;5.648;2023-04-06T02:05:21;9.0;43.0
78463;SHT31;67756;51.982;5.648;2023-04-06T02:07:50;9.0;42.5
78463;SHT31;67756;51.982;5.648;2023-04-06T02:10:20;9.0;42.5
78463;SHT31;67756;51.982;5.648;2023-04-06T02:12:49;9.0;42.6
78463;SHT31;67756;51.982;5.648;2023-04-06T02:15:19;9.0;42.3
78463;SHT31;67756;51.982;5.648;2023-04-06T02:17:48;9.0;42.3
78463;SHT31;67756;51.982;5.648;2023-04-06T02:20:18;9.0;42.7
78463;SHT31;67756;51.982;5.648;2023-04-06T02:22:47;9.0;42.5
78463;SHT31;67756;51.982;5.648;2023-04-06T02:25:17;9.0;42.6
78463;SHT31;67756;51.982;5.648;2023-04-06T02:27:46;9.0;42.1
78463;SHT31;67756;51.982;5.648;2023-04-06T02:30:16;9.0;42.9
78463;SHT31;67756;51.982;5.648;2023-04-06T02:32:45;9.0;42.0
78463;SHT31;67756;51.982;5.648;2023-04-06T02:35:15;9.0;42.2
78463;SHT31;67756;51.982;5.648;2023-04-06T02:37:44;9.0;42.5
78463;SHT31;67756;51.982;5.648;2023-04-06T02:40:14;9.0;42.5
78463;SHT31;67756;51.982;5.648;2023-04-06T02:42:45;9.0;42.7
78463;SHT31;67756;51.982;5.648;2023-04-06T02:45:15;9.0;42.5
78463;SHT31;67756;51.982;5.648;2023-04-06T02:47:45;9.0;42.2
78463;SHT31;67756;51.982;5.648;2023-04-06T02:50:14;8.9;43.0
78463;SHT31;67756;51.982;5.648;2023-04-06T02:52:44;8.9;43.0
78463;SHT31;67756;51.982;5.648;2023-04-06T02:55:13;8.9;42.7
78463;SHT31;67756;51.982;5.648;2023-04-06T02:57:43;8.9;42.4
78463;SHT31;67756;51.982;5.648;2023-04-06T03:00:13;8.9;42.4
78463;SHT31;67756;51.982;5.648;2023-04-06T03:02:42;8.9;42.4
78463;SHT31;67756;51.982;5.648;2023-04-06T03:05:12;8.9;42.5
78463;SHT31;67756;51.982;5.648;2023-04-06T03:07:41;8.9;42.2
78463;SHT31;67756;51.982;5.648;2023-04-06T03:10:11;8.9;42.5
78463;SHT31;67756;51.982;5.648;2023-04-06T03:12:41;8.9;42.3
78463;SHT31;67756;51.982;5.648;2023-04-06T03:15:11;8.9;42.3
78463;SHT31;67756;51.982;5.648;2023-04-06T03:17:41;8.9;42.2
78463;SHT31;67756;51.982;5.648;2023-04-06T03:20:10;8.9;42.1
78463;SHT31;67756;51.982;5.648;2023-04-06T03:22:40;8.9;42.1
78463;SHT31;67756;51.982;5.648;2023-04-06T03:25:09;8.9;41.9
78463;SHT31;67756;51.982;5.648;2023-04-06T03:27:39;8.9;42.4
78463;SHT31;67756;51.982;5.648;2023-04-06T03:30:09;8.9;42.3
78463;SHT31;67756;51.982;5.648;2023-04-06T03:32:38;8.9;42.2
78463;SHT31;67756;51.982;5.648;2023-04-06T03:35:09;8.9;42.5
78463;SHT31;67756;51.982;5.648;2023-04-06T03:37:39;8.9;42.2
78463;SHT31;67756;51.982;5.648;2023-04-06T03:40:11;8.9;42.3
78463;SHT31;67756;51.982;5.648;2023-04-06T03:42:40;8.9;42.1
78463;SHT31;67756;51.982;5.648;2023-04-06T03:45:10;8.9;41.8
78463;SHT31;67756;51.982;5.648;2023-04-06T03:47:41;8.9;41.7
78463;SHT31;67756;51.982;5.648;2023-04-06T03:50:11;8.9;41.8
78463;SHT31;67756;51.982;5.648;2023-04-06T03:52:40;8.9;41.5
78463;SHT31;67756;51.982;5.648;2023-04-06T03:55:10;8.9;41.5
78463;SHT31;67756;51.982;5.648;2023-04-06T03:57:41;8.9;41.7
78463;SHT31;67756;51.982;5.648;2023-04-06T04:00:11;8.9;42.2
78463;SHT31;67756;51.982;5.648;2023-04-06T04:02:42;8.9;41.7
78463;SHT31;67756;51.982;5.648;2023-04-06T04:05:11;8.9;41.5
78463;SHT31;67756;51.982;5.648;2023-04-06T04:07:41;8.9;41.4
78463;SHT31;67756;51.982;5.648;2023-04-06T04:10:11;8.9;42.0
78463;SHT31;67756;51.982;5.648;2023-04-06T04:12:40;8.9;41.7
78463;SHT31;67756;51.982;5.648;2023-04-06T04:15:10;8.9;42.3
78463;SHT31;67756;51.982;5.648;2023-04-06T04:17:39;8.8;42.2
78463;SHT31;67756;51.982;5.648;2023-04-06T04:20:14;8.8;42.2
78463;SHT31;67756;51.982;5.648;2023-04-06T04:22:45;8.8;42.7
78463;SHT31;67756;51.982;5.648;2023-04-06T04:25:15;8.8;42.3
78463;SHT31;67756;51.982;5.648;2023-04-06T04:27:44;8.8;42.2
78463;SHT31;67756;51.982;5.648;2023-04-06T04:30:14;8.8;42.3
78463;SHT31;67756;51.982;5.648;2023-04-06T04:32:43;8.8;42.7
78463;SHT31;67756;51.982;5.648;2023-04-06T04:35:12;8.8;42.7
78463;SHT31;67756;51.982;5.648;2023-04-06T04:37:42;8.8;43.0
78463;SHT31;67756;51.982;5.648;2023-04-06T04:40:12;8.8;42.6
78463;SHT31;67756;51.982;5.648;2023-04-06T04:42:43;8.8;42.8
78463;SHT31;67756;51.982;5.648;2023-04-06T04:45:14;8.7;42.9
78463;SHT31;67756;51.982;5.648;2023-04-06T04:47:43;8.7;42.9
78463;SHT31;67756;51.982;5.648;2023-04-06T04:50:13;8.7;43.5
78463;SHT31;67756;51.982;5.648;2023-04-06T04:52:42;8.7;43.1
78463;SHT31;67756;51.982;5.648;2023-04-06T04:55:13;8.7;43.2
78463;SHT31;67756;51.982;5.648;2023-04-06T04:57:43;8.7;43.2
78463;SHT31;67756;51.982;5.648;2023-04-06T05:00:13;8.6;43.5
78463;SHT31;67756;51.982;5.648;2023-04-06T05:02:43;8.6;43.5
78463;SHT31;67756;51.982;5.648;2023-04-06T05:05:12;8.6;43.7
78463;SHT31;67756;51.982;5.648;2023-04-06T05:07:42;8.6;44.2
78463;SHT31;67756;51.982;5.648;2023-04-06T05:10:11;8.6;44.6
78463;SHT31;67756;51.982;5.648;2023-04-06T05:12:41;8.5;44.2
78463;SHT31;67756;51.982;5.648;2023-04-06T05:15:11;8.5;44.0
78463;SHT31;67756;51.982;5.648;2023-04-06T05:17:41;8.5;44.5
78463;SHT31;67756;51.982;5.648;2023-04-06T05:20:11;8.5;44.0
78463;SHT31;67756;51.982;5.648;2023-04-06T05:22:40;8.5;44.3
78463;SHT31;67756;51.982;5.648;2023-04-06T05:25:10;8.5;44.3
78463;SHT31;67756;51.982;5.648;2023-04-06T05:27:40;8.5;44.5
78463;SHT31;67756;51.982;5.648;2023-04-06T05:30:10;8.5;44.3
78463;SHT31;67756;51.982;5.648;2023-04-06T05:32:39;8.5;44.4
78463;SHT31;67756;51.982;5.648;2023-04-06T05:35:11;8.5;44.3
78463;SHT31;67756;51.982;5.648;2023-04-06T05:37:42;8.5;44.4
78463;SHT31;67756;51.982;5.648;2023-04-06T05:40:14;8.5;44.2
78463;SHT31;67756;51.982;5.648;2023-04-06T05:42:43;8.5;44.3
78463;SHT31;67756;51.982;5.648;2023-04-06T05:45:14;8.6;44.8
78463;SHT31;67756;51.982;5.648;2023-04-06T05:47:44;8.6;44.4
78463;SHT31;67756;51.982;5.648;2023-04-06T05:50:15;8.6;44.5
78463;SHT31;67756;51.982;5.648;2023-04-06T05:52:44;8.6;45.0
78463;SHT31;67756;51.982;5.648;2023-04-06T05:55:14;8.7;44.3
78463;SHT31;67756;51.982;5.648;2023-04-06T05:57:43;8.7;44.0
78463;SHT31;67756;51.982;5.648;2023-04-06T06:00:14;8.7;44.1
78463;SHT31;67756;51.982;5.648;2023-04-06T06:02:43;8.7;44.4
78463;SHT31;67756;51.982;5.648;2023-04-06T06:05:13;8.7;44.2
78463;SHT31;67756;51.982;5.648;2023-04-06T06:07:42;8.7;44.3
78463;SHT31;67756;51.982;5.648;2023-04-06T06:10:14;8.8;44.5
78463;SHT31;67756;51.982;5.648;2023-04-06T06:12:44;8.8;44.6
78463;SHT31;67756;51.982;5.648;2023-04-06T06:15:15;8.8;44.7
78463;SHT31;67756;51.982;5.648;2023-04-06T06:17:45;8.8;44.4
78463;SHT31;67756;51.982;5.648;2023-04-06T06:20:15;8.8;44.6
78463;SHT31;67756;51.982;5.648;2023-04-06T06:22:44;8.8;44.5
78463;SHT31;67756;51.982;5.648;2023-04-06T06:25:14;8.8;44.8
78463;SHT31;67756;51.982;5.648;2023-04-06T06:27:43;8.8;44.8
78463;SHT31;67756;51.982;5.648;2023-04-06T06:30:13;8.9;45.5
78463;SHT31;67756;51.982;5.648;2023-04-06T06:32:43;8.9;45.2
78463;SHT31;67756;51.982;5.648;2023-04-06T06:35:13;8.9;45.5
78463;SHT31;67756;51.982;5.648;2023-04-06T06:37:43;8.9;45.7
78463;SHT31;67756;51.982;5.648;2023-04-06T06:40:13;8.9;45.8
78463;SHT31;67756;51.982;5.648;2023-04-06T06:42:44;8.9;45.7
78463;SHT31;67756;51.982;5.648;2023-04-06T06:45:13;8.9;45.8
78463;SHT31;67756;51.982;5.648;2023-04-06T06:47:43;8.9;46.0
78463;SHT31;67756;51.982;5.648;2023-04-06T06:50:13;8.9;46.1
78463;SHT31;67756;51.982;5.648;2023-04-06T06:52:42;8.9;46.7
78463;SHT31;67756;51.982;5.648;2023-04-06T06:55:14;8.9;46.6
78463;SHT31;67756;51.982;5.648;2023-04-06T06:57:46;8.9;47.0
78463;SHT31;67756;51.982;5.648;2023-04-06T07:00:16;8.9;47.2
78463;SHT31;67756;51.982;5.648;2023-04-06T07:02:47;8.9;47.4
78463;SHT31;67756;51.982;5.648;2023-04-06T07:05:18;8.9;47.7
78463;SHT31;67756;51.982;5.648;2023-04-06T07:07:49;8.9;48.0
78463;SHT31;67756;51.982;5.648;2023-04-06T07:10:18;9.0;48.5
78463;SHT31;67756;51.982;5.648;2023-04-06T07:12:48;9.0;48.6
78463;SHT31;67756;51.982;5.648;2023-04-06T07:15:18;9.0;48.9
78463;SHT31;67756;51.982;5.648;2023-04-06T07:17:47;9.1;48.7
78463;SHT31;67756;51.982;5.648;2023-04-06T07:20:17;9.1;49.1
78463;SHT31;67756;51.982;5.648;2023-04-06T07:22:46;9.2;48.8
78463;SHT31;67756;51.982;5.648;2023-04-06T07:25:16;9.2;49.2
78463;SHT31;67756;51.982;5.648;2023-04-06T07:27:46;9.2;49.1
78463;SHT31;67756;51.982;5.648;2023-04-06T07:30:15;9.3;49.0
78463;SHT31;67756;51.982;5.648;2023-04-06T07:32:45;9.3;48.7
78463;SHT31;67756;51.982;5.648;2023-04-06T07:35:15;9.4;48.4
78463;SHT31;67756;51.982;5.648;2023-04-06T07:37:44;9.4;47.6
78463;SHT31;67756;51.982;5.648;2023-04-06T07:40:14;9.4;47.3
78463;SHT31;67756;51.982;5.648;2023-04-06T07:42:43;9.5;47.3
78463;SHT31;67756;51.982;5.648;2023-04-06T07:45:13;9.5;46.9
78463;SHT31;67756;51.982;5.648;2023-04-06T07:47:43;9.5;47.1
78463;SHT31;67756;51.982;5.648;2023-04-06T07:50:13;9.5;47.0
78463;SHT31;67756;51.982;5.648;2023-04-06T07:52:42;9.6;47.1
78463;SHT31;67756;51.982;5.648;2023-04-06T07:55:12;9.6;47.2
78463;SHT31;67756;51.982;5.648;2023-04-06T07:57:42;9.6;47.4
78463;SHT31;67756;51.982;5.648;2023-04-06T08:00:15;9.6;46.8
78463;SHT31;67756;51.982;5.648;2023-04-06T08:02:44;9.7;46.7
78463;SHT31;67756;51.982;5.648;2023-04-06T08:05:15;9.7;46.6
78463;SHT31;67756;51.982;5.648;2023-04-06T08:07:45;9.7;47.1
78463;SHT31;67756;51.982;5.648;2023-04-06T08:10:14;9.7;47.3
78463;SHT31;67756;51.982;5.648;2023-04-06T08:12:44;9.7;47.1
78463;SHT31;67756;51.982;5.648;2023-04-06T08:15:13;9.7;47.1
78463;SHT31;67756;51.982;5.648;2023-04-06T08:17:45;9.8;47.0
78463;SHT31;67756;51.982;5.648;2023-04-06T08:20:15;9.8;47.1
78463;SHT31;67756;51.982;5.648;2023-04-06T08:22:44;9.8;47.2
78463;SHT31;67756;51.982;5.648;2023-04-06T08:25:14;9.8;47.3
78463;SHT31;67756;51.982;5.648;2023-04-06T08:27:43;9.9;47.4
78463;SHT31;67756;51.982;5.648;2023-04-06T08:30:15;9.9;47.5
78463;SHT31;67756;51.982;5.648;2023-04-06T08:32:46;10.0;47.5
78463;SHT31;67756;51.982;5.648;2023-04-06T08:35:15;10.1;47.5
78463;SHT31;67756;51.982;5.648;2023-04-06T08:37:45;10.1;47.5
78463;SHT31;67756;51.982;5.648;2023-04-06T08:40:15;10.2;47.3
78463;SHT31;67756;51.982;5.648;2023-04-06T08:42:50;10.2;47.3
78463;SHT31;67756;51.982;5.648;2023-04-06T08:45:21;10.3;46.6
78463;SHT31;67756;51.982;5.648;2023-04-06T08:47:52;10.3;46.6
78463;SHT31;67756;51.982;5.648;2023-04-06T08:50:24;10.4;46.6
78463;SHT31;67756;51.982;5.648;2023-04-06T08:52:54;10.4;46.4
78463;SHT31;67756;51.982;5.648;2023-04-06T08:55:24;10.5;46.6
78463;SHT31;67756;51.982;5.648;2023-04-06T08:57:55;10.5;46.3
78463;SHT31;67756;51.982;5.648;2023-04-06T09:00:25;10.5;46.4
78463;SHT31;67756;51.982;5.648;2023-04-06T09:02:57;10.5;46.7
78463;SHT31;67756;51.982;5.648;2023-04-06T09:05:28;10.6;46.7
78463;SHT31;67756;51.982;5.648;2023-04-06T09:08:00;10.6;47.2
78463;SHT31;67756;51.982;5.648;2023-04-06T09:10:29;10.6;47.5
78463;SHT31;67756;51.982;5.648;2023-04-06T09:13:05;10.7;47.2
78463;SHT31;67756;51.982;5.648;2023-04-06T09:15:36;10.8;46.4
78463;SHT31;67756;51.982;5.648;2023-04-06T09:18:06;10.8;46.0
78463;SHT31;67756;51.982;5.648;2023-04-06T09:20:39;10.9;45.7
78463;SHT31;67756;51.982;5.648;2023-04-06T09:23:19;10.9;45.9
78463;SHT31;67756;51.982;5.648;2023-04-06T09:25:50;10.9;46.2
78463;SHT31;67756;51.982;5.648;2023-04-06T09:28:19;11.0;45.8
78463;SHT31;67756;51.982;5.648;2023-04-06T09:30:49;11.0;46.0
78463;SHT31;67756;51.982;5.648;2023-04-06T09:33:23;11.1;46.2
78463;SHT31;67756;51.982;5.648;2023-04-06T09:35:53;11.1;45.7
78463;SHT31;67756;51.982;5.648;2023-04-06T09:38:22;11.1;45.7
78463;SHT31;67756;51.982;5.648;2023-04-06T09:40:52;11.2;46.1
78463;SHT31;67756;51.982;5.648;2023-04-06T09:43:28;11.2;46.1
78463;SHT31;67756;51.982;5.648;2023-04-06T09:46:00;11.2;46.2
78463;SHT31;67756;51.982;5.648;2023-04-06T09:48:35;11.2;46.0
78463;SHT31;67756;51.982;5.648;2023-04-06T09:51:06;11.3;46.2
78463;SHT31;67756;51.982;5.648;2023-04-06T09:53:39;11.3;46.3
78463;SHT31;67756;51.982;5.648;2023-04-06T09:56:12;11.3;46.2
78463;SHT31;67756;51.982;5.648;2023-04-06T09:58:47;11.3;46.6
78463;SHT31;67756;51.982;5.648;2023-04-06T10:01:20;11.3;46.9
78463;SHT31;67756;51.982;5.648;2023-04-06T10:03:56;11.3;46.3
78463;SHT31;67756;51.982;5.648;2023-04-06T10:06:32;11.4;46.2
78463;SHT31;67756;51.982;5.648;2023-04-06T10:09:06;11.4;45.9
78463;SHT31;67756;51.982;5.648;2023-04-06T10:11:38;11.4;45.8
78463;SHT31;67756;51.982;5.648;2023-04-06T10:14:08;11.5;45.8
78463;SHT31;67756;51.982;5.648;2023-04-06T10:16:39;11.5;45.9
78463;SHT31;67756;51.982;5.648;2023-04-06T10:19:15;11.5;45.9
78463;SHT31;67756;51.982;5.648;2023-04-06T10:21:53;11.6;46.8
78463;SHT31;67756;51.982;5.648;2023-04-06T10:24:23;11.6;46.6
78463;SHT31;67756;51.982;5.648;2023-04-06T10:27:02;11.7;46.7
78463;SHT31;67756;51.982;5.648;2023-04-06T10:29:42;11.7;46.9
78463;SHT31;67756;51.982;5.648;2023-04-06T10:32:13;11.8;47.3
78463;SHT31;67756;51.982;5.648;2023-04-06T10:34:42;11.8;48.0
78463;SHT31;67756;51.982;5.648;2023-04-06T10:37:12;11.9;48.7
78463;SHT31;67756;51.982;5.648;2023-04-06T10:39:52;12.0;48.8
78463;SHT31;67756;51.982;5.648;2023-04-06T10:42:37;12.1;47.9
78463;SHT31;67756;51.982;5.648;2023-04-06T10:45:21;12.1;48.4
78463;SHT31;67756;51.982;5.648;2023-04-06T10:47:52;12.2;48.8
78463;SHT31;67756;51.982;5.648;2023-04-06T10:50:22;12.2;49.8
78463;SHT31;67756;51.982;5.648;2023-04-06T10:53:02;12.2;50.5
78463;SHT31;67756;51.982;5.648;2023-04-06T10:55:33;12.2;52.0
78463;SHT31;67756;51.982;5.648;2023-04-06T10:58:06;12.2;52.9
78463;SHT31;67756;51.982;5.648;2023-04-06T11:00:36;12.1;53.9
78463;SHT31;67756;51.982;5.648;2023-04-06T11:03:10;12.1;55.5
78463;SHT31;67756;51.982;5.648;2023-04-06T11:05:43;12.0;56.9
78463;SHT31;67756;51.982;5.648;2023-04-06T11:08:26;12.0;57.1
78463;SHT31;67756;51.982;5.648;2023-04-06T11:11:05;11.9;57.3
78463;SHT31;67756;51.982;5.648;2023-04-06T11:13:41;11.8;58.6
78463;SHT31;67756;51.982;5.648;2023-04-06T11:16:16;11.7;60.2
78463;SHT31;67756;51.982;5.648;2023-04-06T11:18:50;11.7;62.0
78463;SHT31;67756;51.982;5.648;2023-04-06T11:21:33;11.6;61.5
78463;SHT31;67756;51.982;5.648;2023-04-06T11:24:11;11.6;61.5
78463;SHT31;67756;51.982;5.648;2023-04-06T11:26:44;11.6;62.1
78463;SHT31;67756;51.982;5.648;2023-04-06T11:29:16;11.5;61.0
78463;SHT31;67756;51.982;5.648;2023-04-06T11:31:49;11.5;62.0
78463;SHT31;67756;51.982;5.648;2023-04-06T11:34:21;11.4;61.6
78463;SHT31;67756;51.982;5.648;2023-04-06T11:36:55;11.4;60.1
78463;SHT31;67756;51.982;5.648;2023-04-06T11:39:27;11.3;60.2
78463;SHT31;67756;51.982;5.648;2023-04-06T11:42:00;11.3;59.1
78463;SHT31;67756;51.982;5.648;2023-04-06T11:44:35;11.2;60.6
78463;SHT31;67756;51.982;5.648;2023-04-06T11:47:08;11.1;62.5
78463;SHT31;67756;51.982;5.648;2023-04-06T11:49:40;11.1;63.5
78463;SHT31;67756;51.982;5.648;2023-04-06T11:52:17;11.0;63.3
78463;SHT31;67756;51.982;5.648;2023-04-06T11:54:48;11.0;62.3
78463;SHT31;67756;51.982;5.648;2023-04-06T11:57:19;10.9;63.1
78463;SHT31;67756;51.982;5.648;2023-04-06T11:59:50;10.8;63.2
78463;SHT31;67756;51.982;5.648;2023-04-06T12:02:20;10.8;63.5
78463;SHT31;67756;51.982;5.648;2023-04-06T12:04:51;10.7;63.7
78463;SHT31;67756;51.982;5.648;2023-04-06T12:07:21;10.6;65.5
78463;SHT31;67756;51.982;5.648;2023-04-06T12:09:50;10.5;65.0
78463;SHT31;67756;51.982;5.648;2023-04-06T12:12:21;10.5;64.0
78463;SHT31;67756;51.982;5.648;2023-04-06T12:14:51;10.4;63.7
78463;SHT31;67756;51.982;5.648;2023-04-06T12:17:20;10.4;64.5
78463;SHT31;67756;51.982;5.648;2023-04-06T12:19:52;10.3;65.3
78463;SHT31;67756;51.982;5.648;2023-04-06T12:22:22;10.3;64.3
78463;SHT31;67756;51.982;5.648;2023-04-06T12:24:51;10.2;64.9
78463;SHT31;67756;51.982;5.648;2023-04-06T12:27:21;10.2;66.8
78463;SHT31;67756;51.982;5.648;2023-04-06T12:29:52;10.1;66.5
78463;SHT31;67756;51.982;5.648;2023-04-06T12:32:23;10.1;67.7
78463;SHT31;67756;51.982;5.648;2023-04-06T12:34:52;10.1;67.4
78463;SHT31;67756;51.982;5.648;2023-04-06T12:37:24;10.1;67.4
78463;SHT31;67756;51.982;5.648;2023-04-06T12:39:54;10.1;67.7
78463;SHT31;67756;51.982;5.648;2023-04-06T12:42:23;10.1;69.0
78463;SHT31;67756;51.982;5.648;2023-04-06T12:44:53;10.1;68.9
78463;SHT31;67756;51.982;5.648;2023-04-06T12:47:25;10.1;69.5
78463;SHT31;67756;51.982;5.648;2023-04-06T12:49:56;10.1;68.7
78463;SHT31;67756;51.982;5.648;2023-04-06T12:52:26;10.1;69.2
78463;SHT31;67756;51.982;5.648;2023-04-06T12:54:57;10.1;69.4
78463;SHT31;67756;51.982;5.648;2023-04-06T12:57:28;10.1;69.5
78463;SHT31;67756;51.982;5.648;2023-04-06T12:59:58;10.2;68.1
78463;SHT31;67756;51.982;5.648;2023-04-06T13:02:29;10.2;68.4
78463;SHT31;67756;51.982;5.648;2023-04-06T13:04:59;10.2;69.4
78463;SHT31;67756;51.982;5.648;2023-04-06T13:07:28;10.2;69.3
78463;SHT31;67756;51.982;5.648;2023-04-06T13:09:58;10.2;69.4
78463;SHT31;67756;51.982;5.648;2023-04-06T13:12:27;10.3;68.7
78463;SHT31;67756;51.982;5.648;2023-04-06T13:14:57;10.3;69.8
78463;SHT31;67756;51.982;5.648;2023-04-06T13:17:29;10.3;69.7
78463;SHT31;67756;51.982;5.648;2023-04-06T13:19:58;10.3;69.1
78463;SHT31;67756;51.982;5.648;2023-04-06T13:22:28;10.3;69.0
78463;SHT31;67756;51.982;5.648;2023-04-06T13:24:57;10.2;69.3
78463;SHT31;67756;51.982;5.648;2023-04-06T13:27:27;10.2;68.8
78463;SHT31;67756;51.982;5.648;2023-04-06T13:30:01;10.2;68.9
78463;SHT31;67756;51.982;5.648;2023-04-06T13:32:30;10.2;70.0
78463;SHT31;67756;51.982;5.648;2023-04-06T13:35:01;10.2;68.9
78463;SHT31;67756;51.982;5.648;2023-04-06T13:37:32;10.1;69.7
78463;SHT31;67756;51.982;5.648;2023-04-06T13:40:02;10.1;69.1
78463;SHT31;67756;51.982;5.648;2023-04-06T13:42:32;10.1;68.9
78463;SHT31;67756;51.982;5.648;2023-04-06T13:45:02;10.1;69.2
78463;SHT31;67756;51.982;5.648;2023-04-06T13:47:32;10.1;70.9
78463;SHT31;67756;51.982;5.648;2023-04-06T13:50:02;10.1;70.0
78463;SHT31;67756;51.982;5.648;2023-04-06T13:52:32;10.1;70.8
78463;SHT31;67756;51.982;5.648;2023-04-06T13:55:03;10.1;70.8
78463;SHT31;67756;51.982;5.648;2023-04-06T13:57:33;10.1;70.5
78463;SHT31;67756;51.982;5.648;2023-04-06T14:00:04;10.1;71.5
78463;SHT31;67756;51.982;5.648;2023-04-06T14:02:33;10.1;71.9
78463;SHT31;67756;51.982;5.648;2023-04-06T14:05:03;10.1;71.5
78463;SHT31;67756;51.982;5.648;2023-04-06T14:07:33;10.1;72.3
78463;SHT31;67756;51.982;5.648;2023-04-06T14:10:02;10.1;71.9
78463;SHT31;67756;51.982;5.648;2023-04-06T14:12:32;10.1;72.2
78463;SHT31;67756;51.982;5.648;2023-04-06T14:15:01;10.1;73.2
78463;SHT31;67756;51.982;5.648;2023-04-06T14:17:32;10.1;72.9
78463;SHT31;67756;51.982;5.648;2023-04-06T14:20:02;10.1;73.1
78463;SHT31;67756;51.982;5.648;2023-04-06T14:22:31;10.1;72.9
78463;SHT31;67756;51.982;5.648;2023-04-06T14:25:01;10.1;72.8
78463;SHT31;67756;51.982;5.648;2023-04-06T14:27:30;10.1;72.7
78463;SHT31;67756;51.982;5.648;2023-04-06T14:30:00;10.1;72.6
78463;SHT31;67756;51.982;5.648;2023-04-06T14:32:29;10.1;72.5
78463;SHT31;67756;51.982;5.648;2023-04-06T14:34:59;10.1;72.4
78463;SHT31;67756;51.982;5.648;2023-04-06T14:37:31;10.1;72.8
78463;SHT31;67756;51.982;5.648;2023-04-06T14:40:00;10.1;72.8
78463;SHT31;67756;51.982;5.648;2023-04-06T14:42:30;10.0;73.8
78463;SHT31;67756;51.982;5.648;2023-04-06T14:44:59;10.0;74.0
78463;SHT31;67756;51.982;5.648;2023-04-06T14:47:29;10.0;73.9
78463;SHT31;67756;51.982;5.648;2023-04-06T14:49:58;10.0;73.7
78463;SHT31;67756;51.982;5.648;2023-04-06T14:52:27;10.0;73.4
78463;SHT31;67756;51.982;5.648;2023-04-06T14:54:57;10.0;74.1
78463;SHT31;67756;51.982;5.648;2023-04-06T14:57:27;10.0;74.1
78463;SHT31;67756;51.982;5.648;2023-04-06T14:59:57;10.0;74.5
78463;SHT31;67756;51.982;5.648;2023-04-06T15:02:26;10.0;75.2
78463;SHT31;67756;51.982;5.648;2023-04-06T15:04:56;10.0;75.3
78463;SHT31;67756;51.982;5.648;2023-04-06T15:07:26;10.0;74.7
78463;SHT31;67756;51.982;5.648;2023-04-06T15:09:55;10.0;75.2
78463;SHT31;67756;51.982;5.648;2023-04-06T15:12:25;10.0;74.7
78463;SHT31;67756;51.982;5.648;2023-04-06T15:14:56;10.0;74.5
78463;SHT31;67756;51.982;5.648;2023-04-06T15:17:30;10.0;74.5
78463;SHT31;67756;51.982;5.648;2023-04-06T15:19:59;10.0;75.3
78463;SHT31;67756;51.982;5.648;2023-04-06T15:22:29;10.0;74.9
78463;SHT31;67756;51.982;5.648;2023-04-06T15:24:58;10.0;75.1
78463;SHT31;67756;51.982;5.648;2023-04-06T15:27:28;10.0;74.8
78463;SHT31;67756;51.982;5.648;2023-04-06T15:29:57;10.0;74.9
78463;SHT31;67756;51.982;5.648;2023-04-06T15:32:29;9.9;74.7
78463;SHT31;67756;51.982;5.648;2023-04-06T15:34:59;9.9;75.3
78463;SHT31;67756;51.982;5.648;2023-04-06T15:37:29;9.9;76.1
78463;SHT31;67756;51.982;5.648;2023-04-06T15:40:00;9.9;76.5
78463;SHT31;67756;51.982;5.648;2023-04-06T15:42:30;9.9;76.3
78463;SHT31;67756;51.982;5.648;2023-04-06T15:44:59;9.9;76.0
78463;SHT31;67756;51.982;5.648;2023-04-06T15:47:28;9.9;76.2
78463;SHT31;67756;51.982;5.648;2023-04-06T15:50:00;9.9;77.0
78463;SHT31;67756;51.982;5.648;2023-04-06T15:52:29;9.9;76.8
78463;SHT31;67756;51.982;5.648;2023-04-06T15:54:59;9.9;76.6
78463;SHT31;67756;51.982;5.648;2023-04-06T15:57:29;9.9;76.7
78463;SHT31;67756;51.982;5.648;2023-04-06T16:00:00;9.9;77.2
78463;SHT31;67756;51.982;5.648;2023-04-06T16:02:30;9.9;76.9
78463;SHT31;67756;51.982;5.648;2023-04-06T16:05:00;9.9;77.5
78463;SHT31;67756;51.982;5.648;2023-04-06T16:07:31;9.9;77.5
78463;SHT31;67756;51.982;5.648;2023-04-06T16:10:01;9.9;77.8
78463;SHT31;67756;51.982;5.648;2023-04-06T16:12:33;9.9;77.9
78463;SHT31;67756;51.982;5.648;2023-04-06T16:15:02;9.9;77.7
78463;SHT31;67756;51.982;5.648;2023-04-06T16:17:34;9.9;77.7
78463;SHT31;67756;51.982;5.648;2023-04-06T16:20:04;9.9;77.5
78463;SHT31;67756;51.982;5.648;2023-04-06T16:22:34;9.9;77.6
78463;SHT31;67756;51.982;5.648;2023-04-06T16:25:05;9.9;77.5
78463;SHT31;67756;51.982;5.648;2023-04-06T16:27:34;9.9;77.7
78463;SHT31;67756;51.982;5.648;2023-04-06T16:30:05;9.9;77.6